SWA2287 KCHS-KBNA
Flight info
| Callsign | SWA2287 |
|---|---|
| Flight time | N/A |
| Altitude | 36000 |
| Route | STUNO1 ALD THRSR SWFFT3 |
| Aircraft | B738/M-SDE2E3FGHIRWXY/LB1 |
Departure
| Time | 2026-04-22 18:23 |
|---|---|
| Airport | Charleston International Airport (KCHS) |
Arrival
| Time | N/A |
|---|---|
| Airport | Nashville International Airport (KBNA) |
| Time | Latitude | Longitude | Altitude | Speed | Heading |
|---|---|---|---|---|---|
| 2026-04-22 17:57 | 32.88581 | -80.03614 | 40 ft | 0 kts | 163° |
| 2026-04-22 18:14 | 32.88584 | -80.03615 | 67 ft | 2 kts | 164° |
| 2026-04-22 18:14 | 32.88601 | -80.03619 | 38 ft | 3 kts | 183° |
| 2026-04-22 18:14 | 32.88621 | -80.03617 | 38 ft | 3 kts | 182° |
| 2026-04-22 18:14 | 32.88640 | -80.03617 | 39 ft | 3 kts | 171° |
| 2026-04-22 18:15 | 32.88659 | -80.03623 | 38 ft | 3 kts | 152° |
| 2026-04-22 18:15 | 32.88675 | -80.03636 | 38 ft | 3 kts | 133° |
| 2026-04-22 18:15 | 32.88688 | -80.03655 | 38 ft | 3 kts | 120° |
| 2026-04-22 18:15 | 32.88694 | -80.03669 | 37 ft | 1 kts | 119° |
| 2026-04-22 18:16 | 32.88696 | -80.03673 | 37 ft | 0 kts | 119° |
| 2026-04-22 18:18 | 32.88694 | -80.03669 | 37 ft | 2 kts | 119° |
| 2026-04-22 18:18 | 32.88696 | -80.03653 | 40 ft | 2 kts | 24° |
| 2026-04-22 18:18 | 32.88727 | -80.03647 | 40 ft | 10 kts | 6° |
| 2026-04-22 18:19 | 32.88808 | -80.03635 | 40 ft | 12 kts | 8° |
| 2026-04-22 18:19 | 32.88891 | -80.03621 | 40 ft | 12 kts | 8° |
| 2026-04-22 18:19 | 32.88971 | -80.03608 | 40 ft | 11 kts | 7° |
| 2026-04-22 18:19 | 32.89037 | -80.03561 | 40 ft | 12 kts | 51° |
| 2026-04-22 18:20 | 32.89106 | -80.03457 | 40 ft | 17 kts | 52° |
| 2026-04-22 18:20 | 32.89140 | -80.03402 | 40 ft | 6 kts | 57° |
| 2026-04-22 18:20 | 32.89163 | -80.03358 | 40 ft | 5 kts | 57° |
| 2026-04-22 18:20 | 32.89166 | -80.03353 | 40 ft | 0 kts | 57° |
| 2026-04-22 18:21 | 32.89168 | -80.03348 | 40 ft | 3 kts | 57° |
| 2026-04-22 18:21 | 32.89203 | -80.03285 | 38 ft | 14 kts | 56° |
| 2026-04-22 18:21 | 32.89282 | -80.03282 | 39 ft | 15 kts | 327° |
| 2026-04-22 18:22 | 32.89469 | -80.03424 | 38 ft | 61 kts | 327° |
| 2026-04-22 18:22 | 32.90004 | -80.03828 | 40 ft | 119 kts | 327° |
| 2026-04-22 18:22 | 32.90840 | -80.04460 | 47 ft | 163 kts | 324° |
| 2026-04-22 18:22 | 32.91828 | -80.05196 | 442 ft | 168 kts | 324° |
| 2026-04-22 18:23 | 32.92708 | -80.06111 | 920 ft | 174 kts | 295° |
| 2026-04-22 18:23 | 32.92908 | -80.07523 | 1419 ft | 175 kts | 266° |
| 2026-04-22 18:23 | 32.92895 | -80.09021 | 1897 ft | 191 kts | 267° |
| 2026-04-22 18:24 | 32.92912 | -80.12547 | 2290 ft | 235 kts | 270° |
| 2026-04-22 18:24 | 32.92950 | -80.14555 | 2586 ft | 248 kts | 269° |
| 2026-04-22 18:24 | 32.93030 | -80.18760 | 3821 ft | 258 kts | 270° |
| 2026-04-22 18:25 | 32.93076 | -80.20904 | 4472 ft | 261 kts | 271° |
| 2026-04-22 18:25 | 32.93128 | -80.23072 | 5220 ft | 264 kts | 272° |
| 2026-04-22 18:25 | 32.93183 | -80.25260 | 5908 ft | 265 kts | 272° |
| 2026-04-22 18:26 | 32.93296 | -80.29706 | 7396 ft | 268 kts | 272° |
| 2026-04-22 18:26 | 32.93351 | -80.31922 | 8198 ft | 269 kts | 272° |
| 2026-04-22 18:26 | 32.93414 | -80.34163 | 8897 ft | 271 kts | 271° |
| 2026-04-22 18:26 | 32.93474 | -80.36396 | 9561 ft | 276 kts | 271° |
| 2026-04-22 18:27 | 32.93535 | -80.38701 | 10250 ft | 280 kts | 271° |
| 2026-04-22 18:27 | 32.93598 | -80.41104 | 10455 ft | 302 kts | 271° |
| 2026-04-22 18:27 | 32.93665 | -80.43690 | 10623 ft | 323 kts | 271° |
| 2026-04-22 18:27 | 32.93736 | -80.46444 | 10789 ft | 342 kts | 271° |
| 2026-04-22 18:28 | 32.93810 | -80.49346 | 11059 ft | 357 kts | 271° |
| 2026-04-22 18:28 | 32.93970 | -80.52314 | 11635 ft | 361 kts | 275° |
| 2026-04-22 18:28 | 32.94250 | -80.55288 | 12303 ft | 363 kts | 276° |
| 2026-04-22 18:28 | 32.94562 | -80.58286 | 12966 ft | 365 kts | 276° |
| 2026-04-22 18:29 | 32.94875 | -80.61296 | 13624 ft | 368 kts | 276° |
| 2026-04-22 18:29 | 32.95181 | -80.64332 | 14286 ft | 371 kts | 276° |
| 2026-04-22 18:29 | 32.95479 | -80.67369 | 14890 ft | 374 kts | 276° |
| 2026-04-22 18:29 | 32.95776 | -80.70466 | 15493 ft | 379 kts | 276° |
| 2026-04-22 18:30 | 32.96072 | -80.73596 | 16114 ft | 382 kts | 276° |
| 2026-04-22 18:30 | 32.96667 | -80.79946 | 17318 ft | 390 kts | 276° |
| 2026-04-22 18:30 | 32.96867 | -80.82090 | 17703 ft | 392 kts | 276° |